Forest Hills, Michigan
Current Conditions -  °F | °C
As of 10:53 AM on Wednesday 28 Jan 2015 (Local Time) from KGRR Reporting Station
Broken Clouds Broken Clouds  
Wind Chill: 14°   Ceiling: 25000
Heat Index: 24°   Visibility: 10mi
Dew Point: 13°   Wind: 9mph
Humidity: 62%   Direction: 170°S
Pressure: 30.3"   Gusts: NA
Location:  42.9453°N, 85.6127°W
Report Text: KGRR 281553Z 17008KT 10SM FEW120 BKN250 M04/M11 A3030 RMK AO2 SLP275 T10441106
Loading
Personal Weather Stations






























Interactive Weather Map New forecast layout! Learn more

10-Day Weather Forecast

Advertisements
Track Severe Weather on mobile